METAR Data
IDs: Format: Raw Decoded Include TAF

Data at: 0230 UTC 25 Feb 2021

EHRD 250225Z AUTO 19007KT 170V230 9999 NSC 13/09 Q1024 NOSIG